createdAt,value
2022-08-28T00:00:51.311Z,23.90
2022-08-28T00:03:19.619Z,26.23
2022-08-28T00:05:47.333Z,25.50
2022-08-28T00:08:16.578Z,28.42
2022-08-28T00:10:46.451Z,24.63
2022-08-28T00:13:18.750Z,27.58
2022-08-28T00:15:47.532Z,23.88
2022-08-28T00:18:15.273Z,29.48
2022-08-28T00:20:44.480Z,24.58
2022-08-28T00:23:14.036Z,34.58
2022-08-28T00:25:41.441Z,26.50
2022-08-28T00:28:11.083Z,26.73
2022-08-28T00:30:52.810Z,28.08
2022-08-28T00:33:22.600Z,29.00
2022-08-28T00:35:50.368Z,30.13
2022-08-28T00:38:19.264Z,30.70
2022-08-28T00:40:50.359Z,29.25
2022-08-28T00:43:28.348Z,28.67
2022-08-28T00:45:55.720Z,24.17
2022-08-28T00:48:23.168Z,25.65
2022-08-28T00:51:08.216Z,22.95
2022-08-28T00:53:35.638Z,21.23
2022-08-28T00:56:12.258Z,27.52
2022-08-28T00:58:44.045Z,26.83
2022-08-28T01:01:11.487Z,23.17
2022-08-28T01:03:38.985Z,32.60
2022-08-28T01:06:07.013Z,24.05
2022-08-28T01:08:35.073Z,27.15
2022-08-28T01:11:04.218Z,29.35
2022-08-28T01:13:32.470Z,23.92
2022-08-28T01:16:03.553Z,27.58
2022-08-28T01:18:32.279Z,22.10
2022-08-28T01:21:02.921Z,20.23
2022-08-28T01:23:46.214Z,24.35
2022-08-28T01:26:13.943Z,26.93
2022-08-28T01:28:41.389Z,20.85
2022-08-28T01:31:10.395Z,21.98
2022-08-28T01:33:38.059Z,27.45
2022-08-28T01:36:12.144Z,24.55
2022-08-28T01:38:42.563Z,24.15
2022-08-28T01:41:10.154Z,21.65
2022-08-28T01:43:37.667Z,19.60
2022-08-28T01:46:06.567Z,17.60
2022-08-28T01:48:36.817Z,25.65
2022-08-28T01:51:05.049Z,23.80
2022-08-28T01:53:33.538Z,18.90
2022-08-28T01:56:04.660Z,24.67
2022-08-28T01:58:37.400Z,18.08
2022-08-28T02:01:05.800Z,20.15
2022-08-28T02:03:33.536Z,22.00
2022-08-28T02:06:00.962Z,22.85
2022-08-28T02:08:28.339Z,21.25
2022-08-28T02:10:55.936Z,32.20
2022-08-28T02:13:25.685Z,32.58
2022-08-28T02:15:53.264Z,25.20
2022-08-28T02:18:21.313Z,21.98
2022-08-28T02:20:48.690Z,27.23
2022-08-28T02:23:16.189Z,26.38
2022-08-28T02:25:43.592Z,26.85
2022-08-28T02:28:11.128Z,29.50
2022-08-28T02:30:40.903Z,37.22
2022-08-28T02:33:08.523Z,25.25
2022-08-28T02:35:36.074Z,33.28
2022-08-28T02:38:04.571Z,29.00
2022-08-28T02:40:32.223Z,27.73
2022-08-28T02:43:00.213Z,31.02
2022-08-28T02:45:27.590Z,35.13
2022-08-28T02:47:56.827Z,35.42
2022-08-28T02:50:24.437Z,32.80
2022-08-28T02:52:51.844Z,32.35
2022-08-28T02:55:20.532Z,31.92
2022-08-28T02:57:48.847Z,34.72
2022-08-28T03:00:19.728Z,35.22
2022-08-28T03:02:47.281Z,37.40
2022-08-28T03:05:18.928Z,35.22
2022-08-28T03:07:46.339Z,35.03
2022-08-28T03:10:15.159Z,34.65
2022-08-28T03:12:42.651Z,32.70
2022-08-28T03:15:10.600Z,30.45
2022-08-28T03:17:38.060Z,33.70
2022-08-28T03:20:06.912Z,31.05
2022-08-28T03:22:53.271Z,37.10
2022-08-28T03:25:22.224Z,34.30
2022-08-28T03:27:50.179Z,34.58
2022-08-28T03:30:18.438Z,30.27
2022-08-28T03:32:46.349Z,32.70
2022-08-28T03:35:14.104Z,30.42
2022-08-28T03:37:42.802Z,37.28
2022-08-28T03:40:11.677Z,23.33
2022-08-28T03:42:39.075Z,27.02
2022-08-28T03:45:10.157Z,33.05
2022-08-28T03:47:38.181Z,26.40
2022-08-28T03:50:06.888Z,25.85
2022-08-28T03:52:37.310Z,22.73
2022-08-28T03:55:08.494Z,20.00
2022-08-28T03:57:36.696Z,30.85
2022-08-28T04:00:06.646Z,27.70
2022-08-28T04:02:39.323Z,30.20
2022-08-28T04:05:08.416Z,25.83
2022-08-28T04:07:36.678Z,25.42
2022-08-28T04:10:06.391Z,21.80
2022-08-28T04:12:36.421Z,25.58
2022-08-28T04:15:07.189Z,23.05
2022-08-28T04:17:34.757Z,21.67
2022-08-28T04:20:02.169Z,25.02
2022-08-28T04:22:30.732Z,25.60
2022-08-28T04:24:58.098Z,22.95
2022-08-28T04:27:26.891Z,23.67
2022-08-28T04:29:54.474Z,23.88
2022-08-28T04:32:22.411Z,23.60
2022-08-28T04:34:49.815Z,23.00
2022-08-28T04:37:17.408Z,25.88
2022-08-28T04:39:44.839Z,25.23
2022-08-28T04:42:12.239Z,20.70
2022-08-28T04:44:40.976Z,24.88
2022-08-28T04:47:08.371Z,19.08
2022-08-28T04:49:36.446Z,30.58
2022-08-28T04:52:04.634Z,23.67
2022-08-28T04:54:33.252Z,21.83
2022-08-28T04:57:00.830Z,26.67
2022-08-28T04:59:28.315Z,33.20
2022-08-28T05:01:57.065Z,18.95
2022-08-28T05:04:24.542Z,16.75
2022-08-28T05:06:52.044Z,23.23
2022-08-28T05:09:20.573Z,22.48
2022-08-28T05:11:48.723Z,23.63
2022-08-28T05:14:16.993Z,17.15
2022-08-28T05:16:46.939Z,28.23
2022-08-28T05:19:16.500Z,25.33
2022-08-28T05:21:44.002Z,22.40
2022-08-28T05:24:12.596Z,27.48
2022-08-28T05:26:40.871Z,17.73
2022-08-28T05:29:08.730Z,23.60
2022-08-28T05:31:37.810Z,22.67
2022-08-28T05:34:06.797Z,27.25
2022-08-28T05:36:37.173Z,26.00
2022-08-28T05:39:06.822Z,21.00
2022-08-28T05:41:34.537Z,23.40
2022-08-28T05:44:04.752Z,28.80
2022-08-28T05:46:33.067Z,20.83
2022-08-28T05:49:00.679Z,18.65
2022-08-28T05:51:28.998Z,25.40
2022-08-28T05:53:58.460Z,28.00
2022-08-28T05:56:29.486Z,18.88
2022-08-28T05:58:56.871Z,24.67
2022-08-28T06:01:27.004Z,24.55
2022-08-28T06:03:56.815Z,22.90
2022-08-28T06:06:25.563Z,22.27
2022-08-28T06:08:58.949Z,20.90
2022-08-28T06:11:30.326Z,21.42
2022-08-28T06:13:59.679Z,20.85
2022-08-28T06:16:29.516Z,26.38
2022-08-28T06:18:57.593Z,20.05
2022-08-28T06:21:25.251Z,23.10
2022-08-28T06:23:52.871Z,28.17
2022-08-28T06:26:20.261Z,17.33
2022-08-28T06:28:48.957Z,22.02
2022-08-28T06:31:23.679Z,17.95
2022-08-28T06:33:53.912Z,17.40
2022-08-28T06:36:21.417Z,24.55
2022-08-28T06:38:48.939Z,25.02
2022-08-28T06:41:17.110Z,20.70
2022-08-28T06:43:44.538Z,22.80
2022-08-28T06:46:13.306Z,24.88
2022-08-28T06:48:40.836Z,18.38
2022-08-28T06:51:10.276Z,21.40
2022-08-28T06:53:39.339Z,17.77
2022-08-28T06:56:08.855Z,17.65
2022-08-28T06:58:41.296Z,18.98
2022-08-28T07:01:11.270Z,20.17
2022-08-28T07:03:44.524Z,21.15
2022-08-28T07:06:13.524Z,19.75
2022-08-28T07:08:42.133Z,17.33
2022-08-28T07:11:11.094Z,14.25
2022-08-28T07:13:38.478Z,16.38
2022-08-28T07:16:06.046Z,13.70
2022-08-28T07:18:33.478Z,20.55
2022-08-28T07:21:02.668Z,18.08
2022-08-28T07:23:31.452Z,17.50
2022-08-28T07:25:58.988Z,14.15
2022-08-28T07:28:26.554Z,16.65
2022-08-28T07:30:58.874Z,15.50
2022-08-28T07:33:26.676Z,15.13
2022-08-28T07:35:54.392Z,18.98
2022-08-28T07:38:23.296Z,22.63
2022-08-28T07:40:50.680Z,18.50
2022-08-28T07:43:36.078Z,17.27
2022-08-28T07:46:07.078Z,18.63
2022-08-28T07:48:35.119Z,14.98
2022-08-28T07:51:02.697Z,17.55
2022-08-28T07:53:36.207Z,16.98
2022-08-28T07:56:04.575Z,17.85
2022-08-28T07:58:32.822Z,15.77
2022-08-28T08:01:01.220Z,13.60
2022-08-28T08:03:30.578Z,15.68
2022-08-28T08:05:59.301Z,16.45
2022-08-28T08:08:27.248Z,14.95
2022-08-28T08:11:04.023Z,16.88
2022-08-28T08:13:34.026Z,17.88
2022-08-28T08:16:02.844Z,12.20
2022-08-28T08:18:30.498Z,13.23
2022-08-28T08:20:58.231Z,15.38
2022-08-28T08:23:26.107Z,13.43
2022-08-28T08:25:57.786Z,15.52
2022-08-28T08:28:27.816Z,14.05
2022-08-28T08:31:04.284Z,15.25
2022-08-28T08:33:32.991Z,15.00
2022-08-28T08:36:01.017Z,16.35
2022-08-28T08:38:29.857Z,13.52
2022-08-28T08:40:57.332Z,15.43
2022-08-28T08:43:27.469Z,17.60
2022-08-28T08:45:54.888Z,17.70
2022-08-28T08:48:27.679Z,15.15
2022-08-28T08:50:56.475Z,11.18
2022-08-28T08:53:28.858Z,12.52
2022-08-28T08:55:58.215Z,12.57
2022-08-28T08:58:30.312Z,16.95
2022-08-28T09:01:02.785Z,14.20
2022-08-28T09:03:45.192Z,11.48
2022-08-28T09:06:20.628Z,12.43
2022-08-28T09:08:53.199Z,16.83
2022-08-28T09:11:31.588Z,15.73
2022-08-28T09:14:04.626Z,12.45
2022-08-28T09:16:33.958Z,11.05
2022-08-28T09:19:01.587Z,15.45
2022-08-28T09:21:31.295Z,7.85
2022-08-28T09:24:05.972Z,10.45
2022-08-28T09:26:38.423Z,12.68
2022-08-28T09:29:18.149Z,14.13
2022-08-28T09:31:45.791Z,12.57
2022-08-28T09:34:20.473Z,9.63
2022-08-28T09:36:47.944Z,10.73
2022-08-28T09:39:18.571Z,10.98
2022-08-28T09:42:17.556Z,13.27
2022-08-28T09:44:58.111Z,12.65
2022-08-28T09:47:47.308Z,13.48
2022-08-28T09:50:22.067Z,12.75
2022-08-28T09:52:49.685Z,15.27
2022-08-28T09:55:22.505Z,9.05
2022-08-28T09:57:50.052Z,9.65
2022-08-28T10:00:18.919Z,7.85
2022-08-28T10:02:50.184Z,9.43
2022-08-28T10:05:24.214Z,12.77
2022-08-28T10:07:57.768Z,10.10
2022-08-28T10:10:29.765Z,9.57
2022-08-28T10:13:03.954Z,11.20
2022-08-28T10:15:42.968Z,9.77
2022-08-28T10:18:23.822Z,15.35
2022-08-28T10:20:55.053Z,11.60
2022-08-28T10:23:30.914Z,11.93
2022-08-28T10:26:02.311Z,13.35
2022-08-28T10:28:39.222Z,10.55
2022-08-28T10:31:12.583Z,13.85
2022-08-28T10:33:50.345Z,10.82
2022-08-28T10:36:33.881Z,13.10
2022-08-28T10:39:14.447Z,11.10
2022-08-28T10:41:45.941Z,10.73
2022-08-28T10:44:18.348Z,11.27
2022-08-28T10:46:50.559Z,11.30
2022-08-28T10:49:23.966Z,7.90
2022-08-28T10:51:53.636Z,17.20
2022-08-28T10:54:23.943Z,17.67
2022-08-28T10:56:56.548Z,14.55
2022-08-28T10:59:24.909Z,14.27
2022-08-28T11:01:53.794Z,20.10
2022-08-28T11:04:25.716Z,16.77
2022-08-28T11:06:55.900Z,18.20
2022-08-28T11:09:31.833Z,20.05
2022-08-28T11:12:02.427Z,14.73
2022-08-28T11:14:32.531Z,14.38
2022-08-28T11:17:03.242Z,14.18
2022-08-28T11:19:50.292Z,21.50
2022-08-28T11:22:22.935Z,18.85
2022-08-28T11:25:01.704Z,13.18
2022-08-28T11:27:39.179Z,21.80
2022-08-28T11:30:29.254Z,15.60
2022-08-28T11:33:01.598Z,17.27
2022-08-28T11:35:48.291Z,19.38
2022-08-28T11:38:51.370Z,17.33
2022-08-28T11:41:21.673Z,17.20
2022-08-28T11:43:50.627Z,17.30
2022-08-28T11:46:27.972Z,15.38
2022-08-28T11:48:58.307Z,19.55
2022-08-28T11:51:54.061Z,17.38
2022-08-28T11:54:41.198Z,18.35
2022-08-28T11:57:12.366Z,17.90
2022-08-28T11:59:59.669Z,13.88
2022-08-28T12:03:02.906Z,18.05
2022-08-28T12:05:41.361Z,19.17
2022-08-28T12:08:12.601Z,19.52
2022-08-28T12:10:54.800Z,17.88
2022-08-28T12:13:42.973Z,19.45
2022-08-28T12:16:10.427Z,17.20
2022-08-28T12:19:03.087Z,18.90
2022-08-28T12:21:36.822Z,19.65
2022-08-28T12:26:39.946Z,18.38
2022-08-28T12:29:17.131Z,19.90
2022-08-28T12:32:13.441Z,21.20
2022-08-28T12:34:49.718Z,17.88
2022-08-28T12:37:36.904Z,21.42
2022-08-28T12:40:21.712Z,17.27
2022-08-28T12:42:55.222Z,18.55
2022-08-28T12:47:54.398Z,24.88
2022-08-28T12:50:24.771Z,20.73
2022-08-28T12:52:55.294Z,18.75
2022-08-28T12:55:24.576Z,17.33
2022-08-28T12:57:53.186Z,19.05
2022-08-28T13:00:23.491Z,21.70
2022-08-28T13:02:53.381Z,14.80
2022-08-28T13:05:30.495Z,18.92
2022-08-28T13:08:07.261Z,14.55
2022-08-28T13:10:37.266Z,22.58
2022-08-28T13:13:07.169Z,18.45
2022-08-28T13:15:50.914Z,17.65
2022-08-28T13:18:37.932Z,26.08
2022-08-28T13:21:33.018Z,16.83
2022-08-28T13:24:43.876Z,22.23
2022-08-28T13:27:21.340Z,17.40
2022-08-28T13:30:06.561Z,14.05
2022-08-28T13:32:36.646Z,15.85
2022-08-28T13:35:16.503Z,21.05
2022-08-28T13:37:46.472Z,17.45
2022-08-28T13:40:45.861Z,14.02
2022-08-28T13:43:07.647Z,15.05
2022-08-28T13:45:42.908Z,12.63
2022-08-28T13:48:11.560Z,15.07
2022-08-28T13:50:40.163Z,19.45
2022-08-28T13:53:07.629Z,20.35
2022-08-28T13:55:36.352Z,70.10
2022-08-28T13:58:03.881Z,19.92
2022-08-28T14:00:33.073Z,15.30
2022-08-28T14:03:18.135Z,15.73
2022-08-28T14:05:45.514Z,13.07
2022-08-28T14:08:13.070Z,14.93
2022-08-28T14:10:42.314Z,12.85
2022-08-28T14:13:09.745Z,12.82
2022-08-28T14:15:39.956Z,16.70
2022-08-28T14:18:07.474Z,14.88
2022-08-28T14:20:35.017Z,17.88
2022-08-28T14:23:02.453Z,14.00
2022-08-28T14:25:29.872Z,12.55
2022-08-28T14:27:58.563Z,12.60
2022-08-28T14:30:26.118Z,17.88
2022-08-28T14:32:53.517Z,15.02
2022-08-28T14:35:21.046Z,10.63
2022-08-28T14:37:48.445Z,16.25
2022-08-28T14:40:16.096Z,16.30
2022-08-28T14:42:43.538Z,13.27
2022-08-28T14:45:12.534Z,12.32
2022-08-28T14:47:40.436Z,14.40
2022-08-28T14:50:08.555Z,17.75
2022-08-28T14:52:37.370Z,11.63
2022-08-28T14:55:05.976Z,12.40
2022-08-28T14:57:33.381Z,11.82
2022-08-28T15:00:00.787Z,13.43
2022-08-28T15:02:29.586Z,15.02
2022-08-28T15:04:56.995Z,15.45
2022-08-28T15:07:24.374Z,12.68
2022-08-28T15:09:52.243Z,12.20
2022-08-28T15:12:19.979Z,11.18
2022-08-28T15:14:54.585Z,12.95
2022-08-28T15:17:34.053Z,12.93
2022-08-28T15:20:03.739Z,19.98
2022-08-28T15:22:31.144Z,11.63
2022-08-28T15:24:58.636Z,13.35
2022-08-28T15:27:26.129Z,15.45
2022-08-28T15:29:53.856Z,14.40
2022-08-28T15:32:21.268Z,13.38
2022-08-28T15:34:48.686Z,17.13
2022-08-28T15:37:17.385Z,13.07
2022-08-28T15:40:04.789Z,18.95
2022-08-28T15:42:32.932Z,16.55
2022-08-28T15:45:01.011Z,17.42
2022-08-28T15:47:28.430Z,14.98
2022-08-28T15:49:57.105Z,15.07
2022-08-28T15:52:25.878Z,14.82
2022-08-28T15:54:53.452Z,16.73
2022-08-28T15:57:20.822Z,15.73
2022-08-28T15:59:50.205Z,12.63
2022-08-28T16:02:19.003Z,14.05
2022-08-28T16:04:46.541Z,10.70
2022-08-28T16:07:13.928Z,14.35
2022-08-28T16:09:42.639Z,19.58
2022-08-28T16:12:10.158Z,15.02
2022-08-28T16:14:37.604Z,12.88
2022-08-28T16:17:05.561Z,15.38
2022-08-28T16:19:37.949Z,14.83
2022-08-28T16:22:08.761Z,15.05
2022-08-28T16:24:39.078Z,22.20
2022-08-28T16:27:11.951Z,14.00
2022-08-28T16:29:42.905Z,13.15
2022-08-28T16:32:11.671Z,13.88
2022-08-28T16:34:39.739Z,18.80
2022-08-28T16:37:07.771Z,16.30
2022-08-28T16:39:35.687Z,14.40
2022-08-28T16:42:03.096Z,14.70
2022-08-28T16:44:31.861Z,16.17
2022-08-28T16:46:59.564Z,15.68
2022-08-28T16:49:27.307Z,13.95
2022-08-28T16:51:54.685Z,16.77
2022-08-28T16:54:23.475Z,19.20
2022-08-28T16:56:50.853Z,12.25
2022-08-28T16:59:20.436Z,15.63
2022-08-28T17:01:53.761Z,16.40
2022-08-28T17:04:22.368Z,13.70
2022-08-28T17:06:50.221Z,13.57
2022-08-28T17:09:21.093Z,11.63
2022-08-28T17:11:51.788Z,12.98
2022-08-28T17:14:19.963Z,15.55
2022-08-28T17:16:47.354Z,18.73
2022-08-28T17:19:16.299Z,14.90
2022-08-28T17:22:01.464Z,17.65
2022-08-28T17:24:29.231Z,13.65
2022-08-28T17:26:56.627Z,11.07
2022-08-28T17:29:24.391Z,13.38
2022-08-28T17:31:51.838Z,16.60
2022-08-28T17:34:21.294Z,16.13
2022-08-28T17:36:49.022Z,15.27
2022-08-28T17:39:17.097Z,18.35
2022-08-28T17:41:44.589Z,12.50
2022-08-28T17:44:12.073Z,12.73
2022-08-28T17:46:39.527Z,11.27
2022-08-28T17:49:08.324Z,12.32
2022-08-28T17:51:43.260Z,18.98
2022-08-28T17:54:12.899Z,12.48
2022-08-28T17:56:40.415Z,14.68
2022-08-28T17:59:07.907Z,12.70
2022-08-28T18:01:35.964Z,19.20
2022-08-28T18:04:05.049Z,15.98
2022-08-28T18:06:33.040Z,13.95
2022-08-28T18:09:02.062Z,15.73
2022-08-28T18:11:29.872Z,23.38
2022-08-28T18:13:57.355Z,17.02
2022-08-28T18:16:30.348Z,19.58
2022-08-28T18:18:58.841Z,17.23
2022-08-28T18:21:26.325Z,18.52
2022-08-28T18:23:53.760Z,13.55
2022-08-28T18:26:22.573Z,19.15
2022-08-28T18:28:50.094Z,19.55
2022-08-28T18:31:19.325Z,16.52
2022-08-28T18:33:46.818Z,17.27
2022-08-28T18:36:15.762Z,13.60
2022-08-28T18:38:44.408Z,16.80
2022-08-28T18:41:12.017Z,17.85
2022-08-28T18:43:41.926Z,15.40
2022-08-28T18:46:10.275Z,19.23
2022-08-28T18:48:38.666Z,20.45
2022-08-28T18:51:07.600Z,19.60
2022-08-28T18:53:35.931Z,16.20
2022-08-28T18:56:04.040Z,17.45
2022-08-28T18:58:32.302Z,17.27
2022-08-28T19:01:02.408Z,13.20
2022-08-28T19:03:30.613Z,14.90
2022-08-28T19:05:58.075Z,20.17
2022-08-28T19:08:26.338Z,15.77
2022-08-28T19:10:54.120Z,17.38
2022-08-28T19:13:21.629Z,18.88
2022-08-28T19:15:51.584Z,17.92
2022-08-28T19:18:20.781Z,15.98
2022-08-28T19:20:48.311Z,16.38
2022-08-28T19:23:17.844Z,15.55
2022-08-28T19:25:45.575Z,16.33
2022-08-28T19:28:13.849Z,15.00
2022-08-28T19:30:42.040Z,17.23
2022-08-28T19:33:12.436Z,14.32
2022-08-28T19:35:41.323Z,14.95
2022-08-28T19:38:09.130Z,13.55
2022-08-28T19:40:38.695Z,14.20
2022-08-28T19:43:06.356Z,11.20
2022-08-28T19:45:37.097Z,16.38
2022-08-28T19:48:04.686Z,18.70
2022-08-28T19:50:32.291Z,12.30
2022-08-28T19:53:00.997Z,12.32
2022-08-28T19:55:29.239Z,13.45
2022-08-28T19:57:56.811Z,13.23
2022-08-28T20:00:28.137Z,14.55
2022-08-28T20:02:55.735Z,15.57
2022-08-28T20:05:23.323Z,12.65
2022-08-28T20:07:50.858Z,15.00
2022-08-28T20:10:21.435Z,14.07
2022-08-28T20:12:49.023Z,13.65
2022-08-28T20:15:18.431Z,16.98
2022-08-28T20:17:49.596Z,20.02
2022-08-28T20:20:18.669Z,15.15
2022-08-28T20:22:46.216Z,10.77
2022-08-28T20:25:14.857Z,16.02
2022-08-28T20:27:43.636Z,13.15
2022-08-28T20:30:15.064Z,12.27
2022-08-28T20:32:42.575Z,11.90
2022-08-28T20:35:11.850Z,13.45
2022-08-28T20:37:44.928Z,14.70
2022-08-28T20:40:13.494Z,13.40
2022-08-28T20:42:40.984Z,10.68
2022-08-28T20:45:10.577Z,12.05
2022-08-28T20:47:38.061Z,11.65
2022-08-28T20:50:06.394Z,15.55
2022-08-28T20:52:34.060Z,14.75
2022-08-28T20:55:01.426Z,13.20
2022-08-28T20:57:28.962Z,17.48
2022-08-28T20:59:56.418Z,9.32
2022-08-28T21:02:27.364Z,12.27
2022-08-28T21:04:55.780Z,14.43
2022-08-28T21:07:25.236Z,12.70
2022-08-28T21:09:52.721Z,13.55
2022-08-28T21:12:34.514Z,17.83
2022-08-28T21:15:02.321Z,17.77
2022-08-28T21:17:31.212Z,15.95
2022-08-28T21:20:01.382Z,12.70
2022-08-28T21:22:31.298Z,16.73
2022-08-28T21:24:58.717Z,14.38
2022-08-28T21:27:26.765Z,15.07
2022-08-28T21:29:56.119Z,16.08
2022-08-28T21:32:23.516Z,14.30
2022-08-28T21:34:52.657Z,13.80
2022-08-28T21:37:20.153Z,15.80
2022-08-28T21:39:47.520Z,13.45
2022-08-28T21:42:14.900Z,18.23
2022-08-28T21:44:44.602Z,17.67
2022-08-28T21:47:19.167Z,11.43
2022-08-28T21:49:48.937Z,14.00
2022-08-28T21:52:18.147Z,13.48
2022-08-28T21:54:45.530Z,15.48
2022-08-28T21:57:12.923Z,13.02
2022-08-28T21:59:40.411Z,12.75
2022-08-28T22:02:08.011Z,13.63
2022-08-28T22:04:35.709Z,14.95
2022-08-28T22:07:03.107Z,18.25
2022-08-28T22:09:31.860Z,15.52
2022-08-28T22:11:59.252Z,17.25
2022-08-28T22:14:28.439Z,10.55
2022-08-28T22:16:56.590Z,14.05
2022-08-28T22:19:24.007Z,16.30
2022-08-28T22:22:09.362Z,11.38
2022-08-28T22:24:38.061Z,14.20
2022-08-28T22:27:05.984Z,14.60
2022-08-28T22:29:36.484Z,15.60
2022-08-28T22:32:04.427Z,11.27
2022-08-28T22:34:32.116Z,13.80
2022-08-28T22:36:59.537Z,14.98
2022-08-28T22:39:26.906Z,14.73
2022-08-28T22:41:55.587Z,20.75
2022-08-28T22:44:22.975Z,10.43
2022-08-28T22:46:50.357Z,17.70
2022-08-28T22:49:17.748Z,17.48
2022-08-28T22:51:45.155Z,13.35
2022-08-28T22:54:12.554Z,15.13
2022-08-28T22:56:39.934Z,17.65
2022-08-28T22:59:08.660Z,13.40
2022-08-28T23:01:36.547Z,15.70
2022-08-28T23:04:04.964Z,16.33
2022-08-28T23:06:33.041Z,14.55
2022-08-28T23:09:00.423Z,13.15
2022-08-28T23:11:27.836Z,17.23
2022-08-28T23:13:55.209Z,13.45
2022-08-28T23:16:24.467Z,9.43
2022-08-28T23:19:08.755Z,11.18
2022-08-28T23:21:39.350Z,16.60
2022-08-28T23:24:12.100Z,21.67
2022-08-28T23:26:39.471Z,10.77
2022-08-28T23:29:06.878Z,15.75
2022-08-28T23:31:35.783Z,11.75
2022-08-28T23:34:03.810Z,10.57
2022-08-28T23:36:32.491Z,16.25
2022-08-28T23:39:02.994Z,12.38
2022-08-28T23:41:30.415Z,17.67
2022-08-28T23:43:58.035Z,16.20
2022-08-28T23:46:25.454Z,12.80
2022-08-28T23:48:54.473Z,14.95
2022-08-28T23:51:22.363Z,12.13
2022-08-28T23:53:50.385Z,15.50
2022-08-28T23:56:18.655Z,14.52
2022-08-28T23:58:46.048Z,17.73
